createdAt,value
2018-07-09T00:00:37.562Z,1014
2018-07-09T00:01:18.028Z,1013.97
2018-07-09T00:01:58.447Z,1013.98
2018-07-09T00:02:38.856Z,1013.98
2018-07-09T00:03:19.282Z,1013.98
2018-07-09T00:03:59.664Z,1014.02
2018-07-09T00:04:40.114Z,1013.97
2018-07-09T00:05:20.495Z,1014
2018-07-09T00:06:00.897Z,1013.99
2018-07-09T00:06:41.287Z,1013.98
2018-07-09T00:07:21.727Z,1013.99
2018-07-09T00:08:02.087Z,1013.98
2018-07-09T00:08:42.526Z,1013.99
2018-07-09T00:09:22.945Z,1014.03
2018-07-09T00:10:03.342Z,1013.98
2018-07-09T00:10:43.786Z,1013.98
2018-07-09T00:11:24.222Z,1013.97
2018-07-09T00:12:04.699Z,1013.96
2018-07-09T00:12:45.058Z,1014
2018-07-09T00:13:25.464Z,1013.97
2018-07-09T00:14:05.892Z,1014
2018-07-09T00:14:46.301Z,1014.03
2018-07-09T00:15:26.736Z,1014.05
2018-07-09T00:16:07.141Z,1014.03
2018-07-09T00:16:47.537Z,1014.05
2018-07-09T00:17:27.933Z,1014.05
2018-07-09T00:18:08.360Z,1014.03
2018-07-09T00:18:48.761Z,1014.03
2018-07-09T00:19:29.199Z,1014
2018-07-09T00:20:09.624Z,1014.05
2018-07-09T00:20:50.084Z,1014.02
2018-07-09T00:21:30.559Z,1014.01
2018-07-09T00:22:10.975Z,1014
2018-07-09T00:22:51.357Z,1013.99
2018-07-09T00:23:31.824Z,1014.02
2018-07-09T00:24:12.129Z,1014.01
2018-07-09T00:24:52.568Z,1014.07
2018-07-09T00:25:32.929Z,1014.02
2018-07-09T00:26:13.510Z,1014.02
2018-07-09T00:26:53.927Z,1014.08
2018-07-09T00:27:34.343Z,1014.07
2018-07-09T00:28:15.215Z,1014.07
2018-07-09T00:28:55.670Z,1014.08
2018-07-09T00:29:36.149Z,1014.08
2018-07-09T00:30:16.562Z,1014.06
2018-07-09T00:32:12.796Z,1014.05
2018-07-09T00:32:55.330Z,1014.07
2018-07-09T00:33:36.472Z,1014.03
2018-07-09T00:34:16.873Z,1014.05
2018-07-09T00:34:57.346Z,1014.01
2018-07-09T00:35:37.753Z,1014.01
2018-07-09T00:36:18.209Z,1014.04
2018-07-09T00:36:58.628Z,1014.02
2018-07-09T00:37:39.016Z,1013.99
2018-07-09T00:38:19.496Z,1014.01
2018-07-09T00:38:59.861Z,1014.01
2018-07-09T00:41:14.823Z,1013.99
2018-07-09T00:42:07.844Z,1013.98
2018-07-09T00:43:57.178Z,1014.02
2018-07-09T00:44:37.461Z,1014.04
2018-07-09T00:45:18.019Z,1014.03
2018-07-09T00:45:58.589Z,1014.03
2018-07-09T00:46:38.965Z,1014.03
2018-07-09T00:47:19.497Z,1014.03
2018-07-09T00:47:59.914Z,1014.08
2018-07-09T00:48:40.311Z,1014.1
2018-07-09T00:49:20.768Z,1014.07
2018-07-09T00:50:01.181Z,1014.11
2018-07-09T00:50:41.563Z,1014.07
2018-07-09T00:51:22.592Z,1014.11
2018-07-09T00:52:03.006Z,1014.06
2018-07-09T00:52:43.417Z,1014.09
2018-07-09T00:53:23.846Z,1014.06
2018-07-09T00:54:04.307Z,1014.03
2018-07-09T00:54:44.764Z,1014.08
2018-07-09T00:55:25.178Z,1014.06
2018-07-09T00:56:05.615Z,1014.06
2018-07-09T00:56:45.990Z,1014.03
2018-07-09T00:57:26.383Z,1014.06
2018-07-09T00:58:06.817Z,1014.08
2018-07-09T00:58:47.185Z,1014.09
2018-07-09T00:59:27.647Z,1014.09
2018-07-09T01:00:08.102Z,1014.1
2018-07-09T01:00:48.468Z,1014.09
2018-07-09T01:01:28.917Z,1014.12
2018-07-09T01:03:43.705Z,1014.09
2018-07-09T01:05:51.870Z,1014.06
2018-07-09T01:06:32.279Z,1014.09
2018-07-09T01:07:12.792Z,1014.09
2018-07-09T01:07:53.109Z,1014.08
2018-07-09T01:08:33.657Z,1014.09
2018-07-09T01:09:13.931Z,1014.07
2018-07-09T01:09:54.414Z,1014.09
2018-07-09T01:12:12.852Z,1014.07
2018-07-09T01:14:17.207Z,1014.07
2018-07-09T01:14:57.410Z,1014.05
2018-07-09T01:15:37.813Z,1014.01
2018-07-09T01:16:18.306Z,1014.03
2018-07-09T01:16:58.633Z,1014
2018-07-09T01:17:39.163Z,1014
2018-07-09T01:18:19.791Z,1014.02
2018-07-09T01:19:00.277Z,1014.02
2018-07-09T01:19:40.635Z,1014.05
2018-07-09T01:20:21.130Z,1014.06
2018-07-09T01:21:01.440Z,1014.08
2018-07-09T01:21:42.030Z,1014.04
2018-07-09T01:22:22.479Z,1014.06
2018-07-09T01:23:02.856Z,1014.05
2018-07-09T01:23:43.244Z,1014.1
2018-07-09T01:24:23.678Z,1014.09
2018-07-09T01:25:04.616Z,1014.08
2018-07-09T01:25:45.089Z,1014.1
2018-07-09T01:26:25.512Z,1014.1
2018-07-09T01:27:05.969Z,1014.09
2018-07-09T01:27:46.333Z,1014.08
2018-07-09T01:28:26.712Z,1014.07
2018-07-09T01:29:07.131Z,1014.07
2018-07-09T01:29:47.734Z,1014.06
2018-07-09T01:30:28.266Z,1014.05
2018-07-09T01:31:08.790Z,1014.05
2018-07-09T01:31:49.146Z,1014.03
2018-07-09T01:32:29.616Z,1014.03
2018-07-09T01:33:09.894Z,1013.99
2018-07-09T01:33:50.328Z,1014.01
2018-07-09T01:34:31.052Z,1014.01
2018-07-09T01:35:11.455Z,1014
2018-07-09T01:35:51.865Z,1014.05
2018-07-09T01:36:32.236Z,1014.02
2018-07-09T01:37:12.639Z,1014.04
2018-07-09T01:37:53.082Z,1014.06
2018-07-09T01:38:33.457Z,1014.06
2018-07-09T01:39:13.883Z,1014.04
2018-07-09T01:39:54.410Z,1014.04
2018-07-09T01:40:34.698Z,1014.08
2018-07-09T01:41:15.106Z,1014.07
2018-07-09T01:41:55.474Z,1014.06
2018-07-09T01:42:35.918Z,1014.06
2018-07-09T01:43:16.347Z,1014.09
2018-07-09T01:43:56.782Z,1014.04
2018-07-09T01:44:37.163Z,1014.08
2018-07-09T01:45:17.573Z,1014.06
2018-07-09T01:45:58.024Z,1014.05
2018-07-09T01:46:38.388Z,1014.08
2018-07-09T01:47:18.896Z,1014.04
2018-07-09T01:47:59.236Z,1014.07
2018-07-09T01:48:39.728Z,1014.08
2018-07-09T01:49:20.098Z,1014.08
2018-07-09T01:50:00.509Z,1014.07
2018-07-09T01:50:41.011Z,1014.06
2018-07-09T01:51:21.365Z,1014.06
2018-07-09T01:52:01.791Z,1014.06
2018-07-09T01:52:42.174Z,1014.06
2018-07-09T01:53:22.558Z,1014.07
2018-07-09T01:54:02.967Z,1014.05
2018-07-09T01:54:43.358Z,1014.03
2018-07-09T01:55:23.865Z,1014.06
2018-07-09T01:56:04.233Z,1014.03
2018-07-09T01:56:44.682Z,1013.98
2018-07-09T01:59:15.925Z,1013.99
2018-07-09T01:59:57.738Z,1013.99
2018-07-09T02:00:37.791Z,1014
2018-07-09T02:01:18.133Z,1014.04
2018-07-09T02:01:58.632Z,1014.01
2018-07-09T02:02:39.057Z,1014
2018-07-09T02:03:19.442Z,1014.04
2018-07-09T02:03:59.897Z,1014
2018-07-09T02:04:40.254Z,1013.98
2018-07-09T02:05:20.667Z,1013.98
2018-07-09T02:06:01.180Z,1013.97
2018-07-09T02:06:41.551Z,1013.97
2018-07-09T02:07:21.977Z,1013.98
2018-07-09T02:08:02.411Z,1013.99
2018-07-09T02:10:18.197Z,1014.04
2018-07-09T02:10:57.644Z,1014.04
2018-07-09T02:11:38.049Z,1014.07
2018-07-09T02:12:18.442Z,1014.03
2018-07-09T02:12:58.815Z,1014.01
2018-07-09T02:13:39.232Z,1014.05
2018-07-09T02:14:19.736Z,1014.04
2018-07-09T02:15:00.096Z,1014
2018-07-09T02:15:40.525Z,1014.01
2018-07-09T02:16:20.963Z,1014.03
2018-07-09T02:17:01.402Z,1014.05
2018-07-09T02:17:41.812Z,1014.02
2018-07-09T02:18:22.227Z,1014.02
2018-07-09T02:19:02.606Z,1014.03
2018-07-09T02:19:43.043Z,1014
2018-07-09T02:20:23.439Z,1013.99
2018-07-09T02:21:03.913Z,1013.99
2018-07-09T02:21:44.252Z,1013.96
2018-07-09T02:22:24.668Z,1013.95
2018-07-09T02:23:05.424Z,1013.96
2018-07-09T02:23:45.785Z,1013.94
2018-07-09T02:24:26.266Z,1013.95
2018-07-09T02:25:06.621Z,1013.95
2018-07-09T02:25:47.021Z,1013.95
2018-07-09T02:26:27.420Z,1013.98
2018-07-09T02:27:07.809Z,1013.96
2018-07-09T02:27:48.210Z,1013.97
2018-07-09T02:28:28.657Z,1013.95
2018-07-09T02:29:09.054Z,1013.98
2018-07-09T02:29:49.451Z,1013.97
2018-07-09T02:30:29.883Z,1013.97
2018-07-09T02:31:10.353Z,1013.98
2018-07-09T02:31:50.775Z,1013.96
2018-07-09T02:32:31.111Z,1013.96
2018-07-09T02:33:11.505Z,1013.95
2018-07-09T02:33:51.937Z,1013.99
2018-07-09T02:34:32.384Z,1013.96
2018-07-09T02:35:12.794Z,1013.96
2018-07-09T02:35:53.183Z,1013.96
2018-07-09T02:36:33.519Z,1013.96
2018-07-09T02:37:13.979Z,1013.9
2018-07-09T02:37:54.429Z,1013.89
2018-07-09T02:38:34.849Z,1013.89
2018-07-09T02:39:15.276Z,1013.89
2018-07-09T02:39:55.635Z,1013.91
2018-07-09T02:40:36.059Z,1013.89
2018-07-09T02:41:16.535Z,1013.92
2018-07-09T02:41:56.890Z,1013.93
2018-07-09T02:42:37.332Z,1013.98
2018-07-09T02:43:17.696Z,1013.96
2018-07-09T02:43:58.130Z,1013.94
2018-07-09T02:44:38.536Z,1013.96
2018-07-09T02:46:33.060Z,1013.97
2018-07-09T02:47:13.035Z,1013.99
2018-07-09T02:47:53.430Z,1013.99
2018-07-09T02:48:33.876Z,1013.98
2018-07-09T02:49:14.432Z,1014
2018-07-09T02:49:54.773Z,1013.97
2018-07-09T02:50:35.188Z,1014
2018-07-09T02:51:15.566Z,1013.98
2018-07-09T02:51:55.980Z,1013.98
2018-07-09T02:52:36.450Z,1014.04
2018-07-09T02:53:16.920Z,1014.01
2018-07-09T02:53:57.218Z,1014.04
2018-07-09T02:54:37.673Z,1013.99
2018-07-09T02:55:18.044Z,1014.02
2018-07-09T02:55:58.487Z,1014.05
2018-07-09T02:56:38.889Z,1014.04
2018-07-09T02:57:19.286Z,1014.01
2018-07-09T02:57:59.725Z,1014.06
2018-07-09T02:58:40.196Z,1014.05
2018-07-09T02:59:20.566Z,1014.03
2018-07-09T03:00:00.991Z,1014.03
2018-07-09T03:00:41.460Z,1014.05
2018-07-09T03:01:21.773Z,1014.04
2018-07-09T03:02:02.186Z,1014.02
2018-07-09T03:02:42.559Z,1014.07
2018-07-09T03:03:22.970Z,1014.05
2018-07-09T03:04:03.355Z,1014.11
2018-07-09T03:04:43.757Z,1014.1
2018-07-09T03:05:24.164Z,1014.1
2018-07-09T03:06:04.588Z,1014.12
2018-07-09T03:06:44.930Z,1014.14
2018-07-09T03:07:25.367Z,1014.13
2018-07-09T03:08:05.856Z,1014.14
2018-07-09T03:08:46.200Z,1014.12
2018-07-09T03:09:26.772Z,1014.15
2018-07-09T03:10:07.213Z,1014.12
2018-07-09T03:10:47.642Z,1014.18
2018-07-09T03:11:27.993Z,1014.17
2018-07-09T03:12:08.618Z,1014.16
2018-07-09T03:12:50.912Z,1014.17
2018-07-09T03:13:31.588Z,1014.23
2018-07-09T03:14:11.759Z,1014.19
2018-07-09T03:14:52.218Z,1014.23
2018-07-09T03:15:32.663Z,1014.17
2018-07-09T03:16:13.022Z,1014.13
2018-07-09T03:16:53.353Z,1014.17
2018-07-09T03:17:34.049Z,1014.2
2018-07-09T03:18:14.424Z,1014.16
2018-07-09T03:18:54.906Z,1014.14
2018-07-09T03:19:35.331Z,1014.11
2018-07-09T03:20:15.760Z,1014.14
2018-07-09T03:20:56.085Z,1014.14
2018-07-09T03:21:36.607Z,1014.15
2018-07-09T03:22:17.014Z,1014.17
2018-07-09T03:22:57.438Z,1014.16
2018-07-09T03:23:37.836Z,1014.13
2018-07-09T03:24:18.193Z,1014.07
2018-07-09T03:24:58.575Z,1014.12
2018-07-09T03:25:39.138Z,1014.12
2018-07-09T03:26:19.449Z,1014.12
2018-07-09T03:26:59.921Z,1014.1
2018-07-09T03:27:40.286Z,1014.13
2018-07-09T03:28:20.751Z,1014.15
2018-07-09T03:29:01.119Z,1014.2
2018-07-09T03:29:41.640Z,1014.16
2018-07-09T03:30:22.012Z,1014.18
2018-07-09T03:31:02.332Z,1014.16
2018-07-09T03:31:42.801Z,1014.13
2018-07-09T03:32:23.228Z,1014.15
2018-07-09T03:33:03.563Z,1014.15
2018-07-09T03:33:43.983Z,1014.15
2018-07-09T03:34:24.627Z,1014.19
2018-07-09T03:35:04.925Z,1014.22
2018-07-09T03:35:45.326Z,1014.22
2018-07-09T03:36:25.844Z,1014.18
2018-07-09T03:37:06.211Z,1014.2
2018-07-09T03:37:46.583Z,1014.19
2018-07-09T03:38:27.082Z,1014.18
2018-07-09T03:39:07.464Z,1014.2
2018-07-09T03:39:47.817Z,1014.18
2018-07-09T03:40:28.350Z,1014.19
2018-07-09T03:41:08.769Z,1014.18
2018-07-09T03:41:49.114Z,1014.15
2018-07-09T03:42:29.530Z,1014.17
2018-07-09T03:43:09.962Z,1014.15
2018-07-09T03:43:50.412Z,1014.13
2018-07-09T03:44:30.810Z,1014.14
2018-07-09T03:45:11.308Z,1014.16
2018-07-09T03:45:51.677Z,1014.14
2018-07-09T03:46:32.047Z,1014.14
2018-07-09T03:47:12.461Z,1014.11
2018-07-09T03:47:52.908Z,1014.1
2018-07-09T03:48:33.335Z,1014.1
2018-07-09T03:49:13.745Z,1014.11
2018-07-09T03:49:54.121Z,1014.13
2018-07-09T03:50:34.529Z,1014.15
2018-07-09T03:51:15.055Z,1014.15
2018-07-09T03:51:55.361Z,1014.2
2018-07-09T03:52:35.836Z,1014.17
2018-07-09T03:53:16.351Z,1014.2
2018-07-09T03:53:56.674Z,1014.21
2018-07-09T03:54:37.064Z,1014.21
2018-07-09T03:55:17.667Z,1014.21
2018-07-09T03:55:57.880Z,1014.2
2018-07-09T03:56:38.344Z,1014.26
2018-07-09T03:57:18.829Z,1014.23
2018-07-09T03:57:59.156Z,1014.29
2018-07-09T03:58:39.702Z,1014.26
2018-07-09T03:59:19.961Z,1014.24
2018-07-09T04:00:00.336Z,1014.26
2018-07-09T04:00:42.809Z,1014.24
2018-07-09T04:01:21.920Z,1014.24
2018-07-09T04:02:02.401Z,1014.26
2018-07-09T04:02:42.986Z,1014.26
2018-07-09T04:03:23.525Z,1014.27
2018-07-09T04:04:03.823Z,1014.24
2018-07-09T04:04:44.194Z,1014.24
2018-07-09T04:42:45.246Z,1014.52
2018-07-09T04:43:25.531Z,1014.55
2018-07-09T04:44:05.911Z,1014.55
2018-07-09T04:44:46.261Z,1014.53
2018-07-09T04:45:26.706Z,1014.56
2018-07-09T04:46:07.224Z,1014.53
2018-07-09T04:46:47.619Z,1014.53
2018-07-09T04:47:28.033Z,1014.54
2018-07-09T04:48:08.440Z,1014.5
2018-07-09T04:48:48.932Z,1014.49
2018-07-09T04:49:29.321Z,1014.52
2018-07-09T04:50:09.782Z,1014.54
2018-07-09T04:50:50.170Z,1014.56
2018-07-09T04:51:30.580Z,1014.55
2018-07-09T04:52:11.028Z,1014.55
2018-07-09T04:52:51.424Z,1014.58
2018-07-09T04:53:31.882Z,1014.58
2018-07-09T04:54:29.697Z,1014.57
2018-07-09T04:55:10.083Z,1014.58
2018-07-09T04:55:57.231Z,1014.57
2018-07-09T04:59:51.076Z,1014.58
2018-07-09T05:00:31.550Z,1014.62
2018-07-09T05:01:11.947Z,1014.6
2018-07-09T05:01:52.405Z,1014.62
2018-07-09T05:02:32.695Z,1014.6
2018-07-09T05:03:13.077Z,1014.61
2018-07-09T05:03:53.647Z,1014.62
2018-07-09T05:04:35.248Z,1014.61
2018-07-09T05:05:15.012Z,1014.65
2018-07-09T05:05:55.449Z,1014.62
2018-07-09T05:06:35.862Z,1014.65
2018-07-09T05:07:16.525Z,1014.64
2018-07-09T05:07:56.967Z,1014.66
2018-07-09T05:08:37.403Z,1014.64
2018-07-09T05:09:17.987Z,1014.64
2018-07-09T05:09:58.126Z,1014.65
2018-07-09T05:10:38.542Z,1014.64
2018-07-09T05:11:19.000Z,1014.69
2018-07-09T05:11:59.391Z,1014.66
2018-07-09T05:12:39.847Z,1014.66
2018-07-09T05:13:20.242Z,1014.63
2018-07-09T05:14:00.629Z,1014.66
2018-07-09T05:14:41.069Z,1014.64
2018-07-09T05:15:21.562Z,1014.65
2018-07-09T05:16:01.968Z,1014.69
2018-07-09T05:16:42.405Z,1014.68
2018-07-09T05:17:22.928Z,1014.69
2018-07-09T05:22:00.274Z,1014.74
2018-07-09T05:22:42.303Z,1014.74
2018-07-09T05:23:22.701Z,1014.76
2018-07-09T05:24:03.136Z,1014.75
2018-07-09T05:24:43.502Z,1014.78
2018-07-09T05:25:24.403Z,1014.82
2018-07-09T05:26:04.595Z,1014.75
2018-07-09T05:26:45.017Z,1014.79
2018-07-09T05:27:25.372Z,1014.79
2018-07-09T05:28:06.323Z,1014.81
2018-07-09T05:28:46.678Z,1014.8
2018-07-09T05:29:27.153Z,1014.81
2018-07-09T05:30:07.578Z,1014.8
2018-07-09T05:30:48.075Z,1014.83
2018-07-09T05:31:28.452Z,1014.83
2018-07-09T05:32:08.886Z,1014.85
2018-07-09T05:32:49.291Z,1014.91
2018-07-09T05:33:29.721Z,1014.88
2018-07-09T05:34:10.146Z,1014.89
2018-07-09T05:34:50.582Z,1014.87
2018-07-09T05:35:30.969Z,1014.91
2018-07-09T05:36:11.407Z,1014.89
2018-07-09T05:36:51.768Z,1014.88
2018-07-09T05:37:32.185Z,1014.85
2018-07-09T05:38:12.629Z,1014.85
2018-07-09T05:38:53.100Z,1014.89
2018-07-09T05:39:33.572Z,1014.88
2018-07-09T05:40:14.026Z,1014.87
2018-07-09T05:40:54.463Z,1014.89
2018-07-09T05:41:34.828Z,1014.89
2018-07-09T05:42:15.208Z,1014.93
2018-07-09T05:42:55.599Z,1014.94
2018-07-09T05:43:36.068Z,1014.91
2018-07-09T05:44:16.713Z,1014.94
2018-07-09T05:44:57.187Z,1014.95
2018-07-09T05:45:37.581Z,1014.96
2018-07-09T05:46:18.015Z,1014.96
2018-07-09T05:46:59.737Z,1015.01
2018-07-09T05:47:39.675Z,1014.99
2018-07-09T05:48:19.988Z,1014.97
2018-07-09T05:49:00.705Z,1015.01
2018-07-09T05:49:41.411Z,1014.96
2018-07-09T05:50:22.353Z,1014.94
2018-07-09T05:51:03.261Z,1014.95
2018-07-09T05:51:44.164Z,1014.97
2018-07-09T05:52:24.706Z,1014.97
2018-07-09T05:53:05.198Z,1014.94
2018-07-09T05:53:45.946Z,1014.9
2018-07-09T05:54:27.461Z,1014.93
2018-07-09T05:55:07.599Z,1014.89
2018-07-09T05:55:48.914Z,1014.87
2018-07-09T05:56:29.870Z,1014.87
2018-07-09T05:57:11.229Z,1014.85
2018-07-09T05:57:52.233Z,1014.85
2018-07-09T05:58:32.877Z,1014.87
2018-07-09T05:59:13.478Z,1014.84
2018-07-09T05:59:54.425Z,1014.84
2018-07-09T06:00:35.154Z,1014.82
2018-07-09T06:01:16.865Z,1014.86
2018-07-09T06:01:57.341Z,1014.85
2018-07-09T06:02:38.228Z,1014.85
2018-07-09T06:03:20.617Z,1014.87
2018-07-09T06:04:01.763Z,1014.86
2018-07-09T06:04:41.861Z,1014.85
2018-07-09T06:05:23.240Z,1014.88
2018-07-09T06:06:05.352Z,1014.84
2018-07-09T06:06:45.831Z,1014.83
2018-07-09T06:07:26.744Z,1014.85
2018-07-09T06:08:06.931Z,1014.81
2018-07-09T06:08:47.941Z,1014.83
2018-07-09T06:09:28.496Z,1014.86
2018-07-09T06:10:09.092Z,1014.84
2018-07-09T06:10:50.760Z,1014.85
2018-07-09T06:11:31.105Z,1014.81
2018-07-09T06:12:12.242Z,1014.84
2018-07-09T06:12:52.334Z,1014.84
2018-07-09T06:13:32.803Z,1014.83
2018-07-09T06:14:13.342Z,1014.85
2018-07-09T06:14:53.971Z,1014.82
2018-07-09T06:15:34.569Z,1014.79
2018-07-09T06:16:15.608Z,1014.79
2018-07-09T06:16:56.580Z,1014.79
2018-07-09T06:17:37.111Z,1014.76
2018-07-09T06:18:17.872Z,1014.75
2018-07-09T06:18:58.394Z,1014.7
2018-07-09T06:19:39.174Z,1014.72
2018-07-09T06:20:19.937Z,1014.69
2018-07-09T06:21:00.778Z,1014.72
2018-07-09T06:21:41.972Z,1014.7
2018-07-09T06:22:23.952Z,1014.72
2018-07-09T06:23:03.780Z,1014.74
2018-07-09T06:23:44.707Z,1014.74
2018-07-09T06:24:25.511Z,1014.74
2018-07-09T06:25:06.192Z,1014.74
2018-07-09T06:25:46.871Z,1014.72
2018-07-09T06:26:28.250Z,1014.79
2018-07-09T06:27:08.002Z,1014.83
2018-07-09T06:27:49.254Z,1014.77
2018-07-09T06:28:30.399Z,1014.8
2018-07-09T06:29:10.543Z,1014.77
2018-07-09T06:32:10.684Z,1014.76
2018-07-09T06:32:53.344Z,1014.78
2018-07-09T06:33:33.936Z,1014.77
2018-07-09T06:34:15.301Z,1014.77
2018-07-09T06:34:56.040Z,1014.79
2018-07-09T06:35:36.767Z,1014.79
2018-07-09T06:36:17.556Z,1014.79
2018-07-09T06:36:57.971Z,1014.77
2018-07-09T06:37:39.568Z,1014.75
2018-07-09T06:38:19.524Z,1014.72
2018-07-09T06:39:00.596Z,1014.76
2018-07-09T06:39:41.165Z,1014.75
2018-07-09T06:40:21.723Z,1014.73
2018-07-09T06:41:02.974Z,1014.74
2018-07-09T06:41:43.991Z,1014.76
2018-07-09T06:42:25.221Z,1014.75
2018-07-09T06:43:05.791Z,1014.76
2018-07-09T06:43:47.082Z,1014.73
2018-07-09T06:44:27.957Z,1014.79
2018-07-09T06:45:08.440Z,1014.74
2018-07-09T06:45:49.096Z,1014.74
2018-07-09T06:46:30.410Z,1014.74
2018-07-09T06:47:10.964Z,1014.75
2018-07-09T06:47:51.306Z,1014.74
2018-07-09T06:48:32.259Z,1014.73
2018-07-09T06:49:13.568Z,1014.71
2018-07-09T06:49:54.028Z,1014.71
2018-07-09T06:50:34.710Z,1014.76
2018-07-09T06:51:18.808Z,1014.77
2018-07-09T06:51:57.311Z,1014.82
2018-07-09T06:52:38.204Z,1014.76
2018-07-09T06:53:19.093Z,1014.78
2018-07-09T06:54:00.579Z,1014.8
2018-07-09T06:54:41.091Z,1014.8
2018-07-09T06:55:21.556Z,1014.81
2018-07-09T06:56:02.385Z,1014.77
2018-07-09T06:56:43.608Z,1014.77
2018-07-09T06:57:24.356Z,1014.77
2018-07-09T06:58:05.481Z,1014.81
2018-07-09T06:58:45.994Z,1014.82
2018-07-09T06:59:26.740Z,1014.84
2018-07-09T07:00:07.340Z,1014.83
2018-07-09T07:00:48.987Z,1014.83
2018-07-09T07:09:18.417Z,1014.83
2018-07-09T07:12:03.266Z,1014.74
2018-07-09T07:12:43.804Z,1014.75
2018-07-09T07:13:25.049Z,1014.73
2018-07-09T07:14:06.412Z,1014.77
2018-07-09T07:14:46.615Z,1014.74
2018-07-09T07:15:27.167Z,1014.77
2018-07-09T07:16:07.862Z,1014.73
2018-07-09T07:16:48.821Z,1014.76
2018-07-09T07:17:32.756Z,1014.78
2018-07-09T07:18:14.766Z,1014.75
2018-07-09T07:18:55.109Z,1014.75
2018-07-09T07:19:35.944Z,1014.78
2018-07-09T07:20:16.983Z,1014.74
2018-07-09T07:21:00.734Z,1014.78
2018-07-09T07:24:21.612Z,1014.78
2018-07-09T07:25:02.375Z,1014.8
2018-07-09T07:25:43.169Z,1014.78
2018-07-09T07:26:23.676Z,1014.74
2018-07-09T07:27:04.098Z,1014.79
2018-07-09T07:27:44.620Z,1014.8
2018-07-09T07:28:25.074Z,1014.76
2018-07-09T07:29:05.678Z,1014.79
2018-07-09T07:29:46.409Z,1014.8
2018-07-09T07:30:27.694Z,1014.77
2018-07-09T07:31:08.758Z,1014.77
2018-07-09T07:31:50.167Z,1014.8
2018-07-09T07:32:30.078Z,1014.76
2018-07-09T07:33:11.367Z,1014.8
2018-07-09T07:33:52.135Z,1014.82
2018-07-09T07:34:32.815Z,1014.77
2018-07-09T07:35:13.813Z,1014.75
2018-07-09T07:35:54.060Z,1014.79
2018-07-09T07:36:35.189Z,1014.79
2018-07-09T07:37:15.743Z,1014.8
2018-07-09T07:37:57.198Z,1014.83
2018-07-09T07:38:38.852Z,1014.82
2018-07-09T07:39:19.939Z,1014.8
2018-07-09T07:39:59.882Z,1014.8
2018-07-09T07:40:42.425Z,1014.83
2018-07-09T07:41:22.209Z,1014.87
2018-07-09T07:42:02.947Z,1014.88
2018-07-09T07:42:44.515Z,1014.87
2018-07-09T07:43:24.634Z,1014.88
2018-07-09T07:44:05.389Z,1014.85
2018-07-09T07:44:46.641Z,1014.84
2018-07-09T07:45:28.700Z,1014.8
2018-07-09T07:46:10.207Z,1014.79
2018-07-09T07:46:50.716Z,1014.84
2018-07-09T07:47:32.399Z,1014.84
2018-07-09T07:48:12.929Z,1014.87
2018-07-09T07:48:53.270Z,1014.82
2018-07-09T07:49:34.044Z,1014.79
2018-07-09T07:50:14.774Z,1014.81
2018-07-09T07:50:55.542Z,1014.8
2018-07-09T07:51:36.702Z,1014.78
2018-07-09T07:52:18.686Z,1014.74
2018-07-09T07:52:59.345Z,1014.75
2018-07-09T07:53:40.494Z,1014.77
2018-07-09T07:54:21.362Z,1014.69
2018-07-09T07:55:02.711Z,1014.75
2018-07-09T07:55:43.587Z,1014.74
2018-07-09T07:56:24.682Z,1014.73
2018-07-09T07:57:04.522Z,1014.73
2018-07-09T07:57:45.146Z,1014.68
2018-07-09T07:58:26.072Z,1014.71
2018-07-09T07:59:07.192Z,1014.67
2018-07-09T07:59:48.239Z,1014.64
2018-07-09T08:00:28.383Z,1014.62
2018-07-09T08:01:09.664Z,1014.66
2018-07-09T08:01:50.119Z,1014.68
2018-07-09T08:02:30.839Z,1014.68
2018-07-09T08:03:11.496Z,1014.66
2018-07-09T08:03:52.216Z,1014.68
2018-07-09T08:04:32.990Z,1014.64
2018-07-09T08:05:14.480Z,1014.65
2018-07-09T08:05:55.119Z,1014.59
2018-07-09T08:06:37.504Z,1014.6
2018-07-09T08:07:17.978Z,1014.63
2018-07-09T08:07:58.519Z,1014.59
2018-07-09T08:08:39.550Z,1014.57
2018-07-09T08:09:20.783Z,1014.59
2018-07-09T08:10:00.689Z,1014.57
2018-07-09T08:10:41.287Z,1014.58
2018-07-09T08:11:34.985Z,1014.58
2018-07-09T08:12:59.662Z,1014.56
2018-07-09T08:13:27.170Z,1014.56
2018-07-09T08:13:29.228Z,1014.57
2018-07-09T08:14:06.269Z,1014.59
2018-07-09T08:14:46.892Z,1014.51
2018-07-09T08:15:27.676Z,1014.56
2018-07-09T08:16:08.151Z,1014.6
2018-07-09T08:16:49.204Z,1014.59
2018-07-09T08:17:30.358Z,1014.59
2018-07-09T08:18:10.569Z,1014.65
2018-07-09T08:18:50.971Z,1014.6
2018-07-09T08:19:31.871Z,1014.65
2018-07-09T08:20:12.406Z,1014.72
2018-07-09T08:20:52.940Z,1014.71
2018-07-09T08:21:34.793Z,1014.71
2018-07-09T08:22:15.273Z,1014.71
2018-07-09T08:22:56.495Z,1014.72
2018-07-09T08:23:37.070Z,1014.7
2018-07-09T08:24:17.529Z,1014.75
2018-07-09T08:24:59.252Z,1014.75
2018-07-09T08:25:39.791Z,1014.73
2018-07-09T08:26:20.217Z,1014.76
2018-07-09T08:27:00.892Z,1014.77
2018-07-09T08:27:41.291Z,1014.77
2018-07-09T08:28:22.038Z,1014.78
2018-07-09T08:29:03.705Z,1014.78
2018-07-09T08:29:45.198Z,1014.73
2018-07-09T08:30:25.125Z,1014.73
2018-07-09T08:32:19.822Z,1014.7
2018-07-09T08:33:00.030Z,1014.61
2018-07-09T08:33:40.646Z,1014.6
2018-07-09T08:34:21.662Z,1014.62
2018-07-09T08:35:02.165Z,1014.6
2018-07-09T08:35:43.534Z,1014.7
2018-07-09T08:36:23.986Z,1014.62
2018-07-09T08:37:04.369Z,1014.57
2018-07-09T08:37:44.855Z,1014.55
2018-07-09T08:38:25.298Z,1014.53
2018-07-09T08:39:06.035Z,1014.55
2018-07-09T08:39:47.111Z,1014.51
2018-07-09T08:40:27.959Z,1014.52
2018-07-09T08:41:08.682Z,1014.49
2018-07-09T08:41:49.076Z,1014.54
2018-07-09T08:42:29.898Z,1014.48
2018-07-09T08:43:10.653Z,1014.52
2018-07-09T08:43:51.712Z,1014.48
2018-07-09T08:44:33.357Z,1014.49
2018-07-09T08:46:38.724Z,1014.46
2018-07-09T08:47:18.390Z,1014.43
2018-07-09T08:47:58.782Z,1014.42
2018-07-09T08:48:39.187Z,1014.41
2018-07-09T08:49:19.904Z,1014.39
2018-07-09T08:50:00.232Z,1014.39
2018-07-09T08:50:40.922Z,1014.37
2018-07-09T08:51:21.771Z,1014.42
2018-07-09T08:52:02.512Z,1014.43
2018-07-09T08:52:42.558Z,1014.44
2018-07-09T08:53:23.311Z,1014.42
2018-07-09T08:54:04.174Z,1014.46
2018-07-09T08:56:17.889Z,1014.4
2018-07-09T08:56:58.784Z,1014.43
2018-07-09T08:57:39.279Z,1014.43
2018-07-09T08:58:20.652Z,1014.42
2018-07-09T08:59:00.958Z,1014.42
2018-07-09T08:59:41.563Z,1014.45
2018-07-09T09:00:23.354Z,1014.44
2018-07-09T09:01:04.122Z,1014.46
2018-07-09T09:01:44.819Z,1014.43
2018-07-09T09:02:25.357Z,1014.47
2018-07-09T09:03:06.046Z,1014.49
2018-07-09T09:03:46.978Z,1014.45
2018-07-09T09:04:27.417Z,1014.43
2018-07-09T09:05:07.722Z,1014.42
2018-07-09T09:05:48.195Z,1014.43
2018-07-09T09:06:28.798Z,1014.41
2018-07-09T09:07:09.430Z,1014.47
2018-07-09T09:07:50.492Z,1014.44
2018-07-09T09:08:31.045Z,1014.37
2018-07-09T09:09:12.823Z,1014.36
2018-07-09T09:09:54.330Z,1014.37
2018-07-09T09:10:34.387Z,1014.35
2018-07-09T09:11:14.947Z,1014.34
2018-07-09T09:11:55.487Z,1014.38
2018-07-09T09:12:36.000Z,1014.4
2018-07-09T09:13:16.899Z,1014.4
2018-07-09T09:13:57.879Z,1014.44
2018-07-09T09:14:38.316Z,1014.45
2018-07-09T09:15:19.387Z,1014.41
2018-07-09T09:15:59.513Z,1014.39
2018-07-09T09:16:40.460Z,1014.42
2018-07-09T09:17:21.557Z,1014.44
2018-07-09T09:18:02.602Z,1014.42
2018-07-09T09:18:43.023Z,1014.43
2018-07-09T09:20:40.797Z,1014.35
2018-07-09T09:21:21.146Z,1014.36
2018-07-09T09:22:01.563Z,1014.34
2018-07-09T09:22:42.140Z,1014.38
2018-07-09T09:23:22.618Z,1014.41
2018-07-09T09:24:02.989Z,1014.35
2018-07-09T09:24:43.454Z,1014.38
2018-07-09T09:25:24.233Z,1014.41
2018-07-09T09:26:04.634Z,1014.35
2018-07-09T09:26:45.125Z,1014.38
2018-07-09T09:27:26.919Z,1014.41
2018-07-09T09:28:07.544Z,1014.35
2018-07-09T09:32:40.537Z,1014.29
2018-07-09T09:34:57.867Z,1014.3
2018-07-09T09:35:39.048Z,1014.27
2018-07-09T09:36:20.403Z,1014.27
2018-07-09T09:37:00.916Z,1014.31
2018-07-09T09:37:41.476Z,1014.3
2018-07-09T09:38:22.906Z,1014.26
2018-07-09T09:39:04.587Z,1014.22